Time;durP1;ratioP1;P1;durP2;ratioP2;P2;SDS_P1;SDS_P2;PMS_P1;PMS_P2;Temp;Humidity;BMP_temperature;BMP_pressure;BME280_temperature;BME280_humidity;BME280_pressure;Samples;Min_cycle;Max_cycle;Signal;HPM_P1;HPM_P2
2022/07/31 00:01:15;;;;;;;2.20;1.10;;;;;;;16.96;83.18;97968.70;433396;1268;107786;-40
2022/07/31 00:11:21;;;;;;;2.20;0.90;;;;;;;16.85;83.36;97964.20;433761;1268;98653;-41
2022/07/31 00:21:28;;;;;;;1.70;0.70;;;;;;;16.74;83.74;97963.31;433311;1267;111090;-40
2022/07/31 00:31:36;;;;;;;0.70;0.70;;;;;;;16.64;83.94;97960.76;433435;1268;108775;-41
2022/07/31 00:41:45;;;;;;;1.20;0.60;;;;;;;16.51;83.97;97958.85;433531;1268;97483;-42
2022/07/31 00:51:52;;;;;;;0.80;0.40;;;;;;;16.31;84.49;97964.67;433480;1268;107595;-41
2022/07/31 01:01:59;;;;;;;1.80;0.80;;;;;;;16.14;84.95;97961.06;433171;1268;97468;-41
2022/07/31 01:12:13;;;;;;;0.60;0.30;;;;;;;15.96;85.62;97962.72;434104;1257;111236;-41
2022/07/31 01:22:30;;;;;;;0.50;0.50;;;;;;;15.86;85.89;97963.34;434111;1266;108841;-41
2022/07/31 01:32:46;;;;;;;1.00;0.60;;;;;;;15.81;86.06;97965.03;434086;1266;97871;-41
2022/07/31 01:42:59;;;;;;;2.20;0.50;;;;;;;15.78;86.11;97968.80;434106;1267;109619;-41
2022/07/31 01:53:09;;;;;;;0.80;0.30;;;;;;;15.77;86.24;97969.86;434075;1266;97464;-41
2022/07/31 02:03:16;;;;;;;0.30;0.30;;;;;;;15.71;86.18;97967.04;434609;1267;111232;-41
2022/07/31 02:13:44;;;;;;;0.40;0.40;;;;;;;15.63;86.46;97959.55;434132;1266;108878;-42
2022/07/31 02:33:58;;;;;;;0.30;0.30;;;;;;;15.54;86.73;97946.34;434312;1267;109000;-41
2022/07/31 02:44:06;;;;;;;0.60;0.60;;;;;;;15.48;86.96;97942.14;433991;1266;98576;-41
2022/07/31 02:54:13;;;;;;;0.40;0.40;;;;;;;15.41;87.43;97941.71;434120;1266;111137;-41
2022/07/31 03:04:21;;;;;;;1.70;0.60;;;;;;;15.33;87.52;97949.91;434420;1267;108634;-41
2022/07/31 03:14:29;;;;;;;1.50;0.40;;;;;;;15.31;87.53;97947.35;434436;1267;96663;-40
2022/07/31 03:24:38;;;;;;;0.60;0.20;;;;;;;15.27;87.80;97943.98;434074;1266;108871;-41
2022/07/31 03:34:45;;;;;;;0.30;0.30;;;;;;;15.24;87.86;97942.36;434211;1266;97484;-41
2022/07/31 03:44:53;;;;;;;0.50;0.20;;;;;;;15.22;88.09;97950.09;434215;1267;111035;-43
2022/07/31 03:55:01;;;;;;;0.30;0.30;;;;;;;15.22;88.22;97958.77;434146;1266;108711;-40
2022/07/31 04:05:09;;;;;;;0.20;0.20;;;;;;;15.23;88.26;97959.08;433828;1267;97619;-40
2022/07/31 04:15:16;;;;;;;0.30;0.20;;;;;;;15.22;88.51;97955.85;434219;1267;108607;-41
2022/07/31 04:25:22;;;;;;;1.30;0.40;;;;;;;15.21;88.59;97950.94;434000;1266;97487;-41
2022/07/31 04:35:29;;;;;;;0.20;0.20;;;;;;;15.20;88.89;97949.36;434065;1267;111225;-42
2022/07/31 04:45:37;;;;;;;1.10;0.80;;;;;;;15.13;89.11;97948.44;434315;1266;109093;-41
2022/07/31 04:56:31;;;;;;;0.30;0.30;;;;;;;15.08;89.13;97951.44;434022;1266;97165;-41
2022/07/31 05:06:14;;;;;;;1.70;0.40;;;;;;;14.97;89.37;97972.07;434200;1266;109232;-41
2022/07/31 05:16:23;;;;;;;1.30;0.40;;;;;;;14.89;89.59;97984.80;433602;1267;97769;-41
2022/07/31 05:26:30;;;;;;;1.40;0.50;;;;;;;14.84;89.47;98000.86;434419;1266;111115;-41
2022/07/31 05:36:38;;;;;;;0.50;0.50;;;;;;;14.81;89.50;98008.85;433697;1266;770066;-41
2022/07/31 05:46:45;;;;;;;0.70;0.70;;;;;;;14.75;89.56;98017.45;434258;1267;97874;-41
2022/07/31 05:56:52;;;;;;;1.00;0.60;;;;;;;14.72;89.45;98019.91;434322;1266;109261;-40
2022/07/31 06:06:59;;;;;;;0.60;0.60;;;;;;;14.74;89.52;98029.16;434271;1267;97890;-40
2022/07/31 06:17:05;;;;;;;1.20;0.80;;;;;;;14.72;89.58;98027.20;433908;1267;111011;-40
2022/07/31 06:27:11;;;;;;;1.10;1.00;;;;;;;14.69;89.71;98037.07;434150;1267;108563;-41
2022/07/31 06:37:38;;;;;;;1.00;0.80;;;;;;;14.70;89.70;98041.21;433799;1267;97885;-41
2022/07/31 06:47:45;;;;;;;1.80;1.00;;;;;;;14.70;89.87;98042.48;434486;1266;109460;-40
2022/07/31 06:57:53;;;;;;;1.70;1.00;;;;;;;14.69;89.90;98039.73;433795;1267;97903;-40
2022/07/31 07:08:00;;;;;;;1.10;0.90;;;;;;;14.74;89.92;98032.04;434358;1267;111006;-39
2022/07/31 07:18:08;;;;;;;1.10;0.90;;;;;;;14.73;89.86;98030.45;434161;1267;108053;-41
2022/07/31 07:28:15;;;;;;;1.30;1.20;;;;;;;14.73;89.85;98038.16;434253;1267;97876;-40
2022/07/31 07:38:37;;;;;;;1.40;1.30;;;;;;;14.73;89.91;98043.33;434043;1267;108709;-40
2022/07/31 07:48:45;;;;;;;1.20;1.00;;;;;;;14.71;90.14;98050.04;434238;1267;97465;-39
2022/07/31 07:58:52;;;;;;;0.90;0.90;;;;;;;14.74;90.00;98045.19;434172;1267;111023;-39
2022/07/31 08:09:00;;;;;;;1.00;1.00;;;;;;;14.75;90.12;98052.58;433940;1266;108578;-40
2022/07/31 08:19:06;;;;;;;1.70;0.90;;;;;;;14.73;90.14;98057.96;434439;1267;97941;-40
2022/07/31 08:29:13;;;;;;;1.00;0.90;;;;;;;14.74;90.03;98064.88;433640;1267;108782;-41
2022/07/31 08:39:20;;;;;;;0.60;0.60;;;;;;;14.72;90.13;98080.11;433720;1266;97170;-41
2022/07/31 08:59:36;;;;;;;1.30;1.20;;;;;;;14.75;90.33;98083.29;433850;1267;108791;-41
2022/07/31 09:09:42;;;;;;;1.70;1.30;;;;;;;14.75;90.28;98083.61;434109;1267;97588;-41
2022/07/31 09:19:57;;;;;;;1.90;1.00;;;;;;;14.79;90.51;98079.55;434160;1268;109577;-40
2022/07/31 09:30:07;;;;;;;1.20;1.10;;;;;;;14.82;90.56;98083.54;434284;1267;96665;-40
2022/07/31 09:40:13;;;;;;;1.30;1.20;;;;;;;14.87;90.60;98089.53;434544;1266;110040;-40
2022/07/31 09:50:26;;;;;;;1.60;1.50;;;;;;;14.89;90.84;98094.52;434206;1266;108774;-40
2022/07/31 10:00:34;;;;;;;2.50;2.30;;;;;;;14.91;90.98;98098.95;434183;1267;97866;-40
2022/07/31 10:10:46;;;;;;;2.40;2.10;;;;;;;14.93;91.21;98100.83;434403;1268;108775;-40
2022/07/31 10:20:56;;;;;;;2.40;2.20;;;;;;;14.97;91.63;98103.41;433810;1268;98441;-40
2022/07/31 10:31:05;;;;;;;4.00;2.70;;;;;;;15.10;91.55;98107.20;433988;1268;111110;-40
2022/07/31 10:41:15;;;;;;;3.40;1.70;;;;;;;15.23;91.56;98115.73;434079;1268;109053;-41
2022/07/31 10:51:23;;;;;;;1.50;1.40;;;;;;;15.29;91.52;98121.35;433648;1268;97889;-40
2022/07/31 11:01:30;;;;;;;1.80;1.60;;;;;;;15.32;91.48;98130.23;434219;1268;108557;-40
2022/07/31 11:11:38;;;;;;;4.00;2.90;;;;;;;15.39;91.49;98140.23;434410;1266;97871;-41
2022/07/31 11:21:45;;;;;;;3.20;2.90;;;;;;;15.45;91.63;98148.80;434121;1267;111075;-40
2022/07/31 11:31:52;;;;;;;4.10;3.60;;;;;;;15.54;91.61;98155.41;434261;1268;108838;-40
2022/07/31 11:42:02;;;;;;;4.90;4.10;;;;;;;15.64;91.70;98163.77;434181;1266;96656;-41
2022/07/31 11:52:12;;;;;;;4.20;3.80;;;;;;;15.68;91.84;98156.67;434206;1267;108883;-39
2022/07/31 12:02:40;;;;;;;3.90;3.70;;;;;;;15.73;91.87;98156.27;434088;1266;97250;-39
2022/07/31 12:12:47;;;;;;;3.40;3.10;;;;;;;15.70;91.75;98163.05;434119;1268;109612;-40
2022/07/31 12:23:00;;;;;;;5.70;3.60;;;;;;;15.65;91.85;98173.85;433953;1267;109113;-41
2022/07/31 12:43:12;;;;;;;3.60;3.30;;;;;;;15.68;91.68;98184.55;434673;1267;108777;-40
2022/07/31 12:53:19;;;;;;;3.30;3.00;;;;;;;15.76;91.68;98186.95;434514;1266;97509;-41
2022/07/31 13:03:26;;;;;;;3.90;2.50;;;;;;;15.86;91.73;98191.56;434130;1268;111123;-40
2022/07/31 13:23:58;;;;;;;2.90;2.30;;;;;;;15.86;91.76;98206.16;433892;1268;98008;-40
2022/07/31 13:34:06;;;;;;;3.30;3.00;;;;;;;15.81;91.70;98210.65;433946;1267;109124;-39
2022/07/31 13:44:13;;;;;;;3.20;3.00;;;;;;;15.81;91.89;98204.58;434144;1266;97898;-40
2022/07/31 13:54:20;;;;;;;6.20;3.40;;;;;;;15.83;91.86;98205.95;434388;1266;111264;-40
2022/07/31 14:04:31;;;;;;;5.30;3.60;;;;;;;15.85;91.75;98205.32;434382;1267;108814;-40
2022/07/31 14:14:45;;;;;;;8.00;3.40;;;;;;;15.85;91.77;98212.09;433562;1267;97464;-41
2022/07/31 14:24:51;;;;;;;4.70;3.00;;;;;;;15.81;91.77;98217.32;433957;1268;107465;-40
2022/07/31 14:34:59;;;;;;;2.60;2.40;;;;;;;15.80;91.76;98222.34;433941;1267;97893;-40
2022/07/31 14:45:14;;;;;;;4.30;3.20;;;;;;;15.80;91.62;98225.85;433922;1266;111038;-39
2022/07/31 14:55:23;;;;;;;2.60;2.30;;;;;;;15.79;91.53;98227.92;434160;1266;108759;-40
2022/07/31 15:05:30;;;;;;;7.30;2.60;;;;;;;15.81;91.51;98237.58;434176;1267;97487;-39
2022/07/31 15:15:58;;;;;;;3.60;2.90;;;;;;;15.88;91.32;98244.81;434188;1266;108997;-40
2022/07/31 15:26:05;;;;;;;3.40;3.10;;;;;;;15.92;91.35;98250.83;434140;1266;97970;-40
2022/07/31 15:36:13;;;;;;;3.30;2.70;;;;;;;15.98;91.07;98260.39;433897;1268;111214;-42
2022/07/31 15:46:21;;;;;;;3.60;3.30;;;;;;;16.07;90.83;98256.25;434146;1267;108918;-41
2022/07/31 15:56:27;;;;;;;3.10;2.80;;;;;;;16.20;90.95;98254.27;434315;1267;97482;-41
2022/07/31 16:06:35;;;;;;;3.50;2.70;;;;;;;16.33;90.77;98255.25;433413;1265;109039;-41
2022/07/31 16:16:42;;;;;;;3.00;2.70;;;;;;;16.47;90.51;98252.08;434243;1267;98572;-42
2022/07/31 16:26:52;;;;;;;3.60;2.50;;;;;;;16.58;90.39;98254.73;433849;1265;111182;-41
2022/07/31 16:36:59;;;;;;;9.00;2.80;;;;;;;16.59;90.02;98254.20;434087;1266;108700;-40
2022/07/31 16:47:07;;;;;;;2.90;2.70;;;;;;;16.60;90.07;98254.19;434215;1267;97883;-41
2022/07/31 16:57:15;;;;;;;3.60;2.60;;;;;;;16.58;89.80;98251.27;433990;1268;108716;-40
2022/07/31 17:07:22;;;;;;;4.50;2.80;;;;;;;16.58;89.84;98255.38;433625;1268;97471;-40
2022/07/31 17:17:30;;;;;;;6.30;3.30;;;;;;;16.55;89.78;98252.65;433759;1265;111039;-40
2022/07/31 17:27:37;;;;;;;3.90;2.70;;;;;;;16.52;89.53;98263.77;433553;1268;595848;-40
2022/07/31 17:37:44;;;;;;;5.10;4.50;;;;;;;16.48;89.41;98277.00;434018;1268;96635;-40
2022/07/31 17:47:52;;;;;;;10.70;4.40;;;;;;;16.50;89.31;98284.23;434062;1267;107773;-40
2022/07/31 17:58:10;;;;;;;4.20;3.00;;;;;;;16.56;89.12;98286.77;434002;1267;96645;-40
2022/07/31 18:08:17;;;;;;;4.00;3.20;;;;;;;16.64;89.26;98296.18;433975;1267;110935;-41
2022/07/31 18:18:24;;;;;;;9.40;3.50;;;;;;;16.69;88.98;98308.02;433671;1268;109721;-40
2022/07/31 18:28:32;;;;;;;5.30;3.10;;;;;;;16.69;88.95;98318.70;433550;1267;97476;-41
2022/07/31 18:38:39;;;;;;;4.30;3.60;;;;;;;16.65;88.86;98327.36;433442;1267;109546;-41
2022/07/31 18:48:47;;;;;;;3.90;2.90;;;;;;;16.54;88.86;98332.69;434024;1268;97860;-40
2022/07/31 18:59:01;;;;;;;9.30;3.50;;;;;;;16.40;88.67;98341.45;433596;1267;109913;-40
2022/07/31 19:09:08;;;;;;;5.00;3.10;;;;;;;16.30;88.72;98349.35;433766;1266;108787;-39
2022/07/31 19:19:15;;;;;;;7.50;3.80;;;;;;;16.20;88.85;98352.31;433993;1267;98226;-41
2022/07/31 19:29:23;;;;;;;4.40;4.00;;;;;;;16.14;88.77;98353.20;434227;1267;108354;-39
2022/07/31 19:49:38;;;;;;;8.70;3.10;;;;;;;16.03;88.87;98362.71;433791;1267;111108;-40
2022/07/31 19:59:47;;;;;;;3.40;2.70;;;;;;;15.99;89.07;98356.60;433901;1267;108800;-39
2022/07/31 20:09:53;;;;;;;5.00;3.30;;;;;;;15.94;88.92;98356.52;434198;1266;97470;-40
2022/07/31 20:20:00;;;;;;;4.50;2.90;;;;;;;15.90;88.96;98348.85;434289;1266;108806;-42
2022/07/31 20:30:23;;;;;;;4.10;2.60;;;;;;;15.89;88.89;98348.00;433969;1266;97440;-41
2022/07/31 20:40:30;;;;;;;5.70;3.20;;;;;;;15.90;89.09;98345.81;433859;1266;111096;-40
2022/07/31 20:50:37;;;;;;;9.50;4.10;;;;;;;15.92;89.01;98350.23;433754;1266;108781;-40
2022/07/31 21:00:46;;;;;;;4.80;4.20;;;;;;;15.92;88.97;98349.42;433940;1266;96657;-40
2022/07/31 21:10:53;;;;;;;6.60;5.10;;;;;;;15.94;88.95;98354.86;433845;1267;108789;-40
2022/07/31 21:21:01;;;;;;;7.50;4.00;;;;;;;15.97;88.85;98353.36;433841;1267;97496;-40
2022/07/31 21:31:09;;;;;;;4.40;3.70;;;;;;;15.87;88.67;98351.69;434040;1267;111057;-39
2022/07/31 21:41:16;;;;;;;7.90;3.60;;;;;;;15.88;88.95;98351.89;434003;1267;109087;-39
2022/07/31 21:51:24;;;;;;;6.20;3.70;;;;;;;15.81;88.64;98350.99;434357;1266;97519;-39
2022/07/31 22:01:31;;;;;;;6.90;3.90;;;;;;;15.72;88.51;98351.45;434227;1266;108899;-39
2022/07/31 22:11:39;;;;;;;4.80;3.60;;;;;;;15.64;88.59;98353.91;434389;1266;97299;-39
2022/07/31 22:21:45;;;;;;;7.40;4.10;;;;;;;15.51;88.37;98360.98;434251;1267;109613;-39
2022/07/31 22:31:50;;;;;;;7.10;4.00;;;;;;;15.40;88.46;98366.58;434146;1266;107712;-39
2022/07/31 22:42:00;;;;;;;5.00;4.30;;;;;;;15.31;88.42;98366.52;434418;1266;97907;-39
2022/07/31 22:52:10;;;;;;;5.70;3.70;;;;;;;15.17;88.30;98370.15;434232;1267;108923;-39
2022/07/31 23:02:19;;;;;;;11.70;4.60;;;;;;;15.05;88.32;98368.10;434320;1267;97898;-39
2022/07/31 23:12:26;;;;;;;6.00;4.10;;;;;;;14.97;88.08;98364.64;433859;1266;111113;-40
2022/07/31 23:22:33;;;;;;;;;;;;;;;14.79;88.09;98363.80;434114;1267;108760;-39
2022/07/31 23:32:40;;;;;;;5.20;4.70;;;;;;;14.55;87.89;98368.75;434322;1267;97478;-40
2022/07/31 23:42:47;;;;;;;5.80;4.60;;;;;;;14.50;88.02;98371.19;434090;1267;109343;-40
2022/07/31 23:52:55;;;;;;;5.80;4.20;;;;;;;14.30;87.79;98374.85;433502;1268;97264;-39
